sensor_id;sensor_type;location;lat;lon;timestamp;P1;durP1;ratioP1;P2;durP2;ratioP2
66721;SDS011;53633;49.932;10.884;2022-11-20T00:01:08;30.52;;;10.80;;
66721;SDS011;53633;49.932;10.884;2022-11-20T00:03:36;28.50;;;10.60;;
66721;SDS011;53633;49.932;10.884;2022-11-20T00:06:03;27.80;;;10.80;;
66721;SDS011;53633;49.932;10.884;2022-11-20T00:08:31;29.42;;;10.77;;
66721;SDS011;53633;49.932;10.884;2022-11-20T00:11:03;28.00;;;10.60;;
66721;SDS011;53633;49.932;10.884;2022-11-20T00:13:30;26.60;;;10.98;;
66721;SDS011;53633;49.932;10.884;2022-11-20T00:15:57;28.57;;;11.47;;
66721;SDS011;53633;49.932;10.884;2022-11-20T00:18:24;30.77;;;11.25;;
66721;SDS011;53633;49.932;10.884;2022-11-20T00:20:51;32.35;;;12.20;;
66721;SDS011;53633;49.932;10.884;2022-11-20T00:23:18;30.90;;;11.27;;
66721;SDS011;53633;49.932;10.884;2022-11-20T00:25:45;29.63;;;11.88;;
66721;SDS011;53633;49.932;10.884;2022-11-20T00:28:13;30.57;;;11.83;;
66721;SDS011;53633;49.932;10.884;2022-11-20T00:30:40;29.55;;;12.23;;
66721;SDS011;53633;49.932;10.884;2022-11-20T00:33:06;30.60;;;11.38;;
66721;SDS011;53633;49.932;10.884;2022-11-20T00:35:33;29.75;;;11.43;;
66721;SDS011;53633;49.932;10.884;2022-11-20T00:38:00;30.38;;;11.48;;
66721;SDS011;53633;49.932;10.884;2022-11-20T00:40:26;29.63;;;10.50;;
66721;SDS011;53633;49.932;10.884;2022-11-20T00:42:53;31.65;;;10.95;;
66721;SDS011;53633;49.932;10.884;2022-11-20T00:45:21;29.15;;;11.50;;
66721;SDS011;53633;49.932;10.884;2022-11-20T00:47:48;29.10;;;10.88;;
66721;SDS011;53633;49.932;10.884;2022-11-20T00:50:14;31.63;;;11.25;;
66721;SDS011;53633;49.932;10.884;2022-11-20T00:52:41;30.10;;;11.60;;
66721;SDS011;53633;49.932;10.884;2022-11-20T00:55:08;30.20;;;11.32;;
66721;SDS011;53633;49.932;10.884;2022-11-20T00:57:34;28.50;;;11.10;;
66721;SDS011;53633;49.932;10.884;2022-11-20T01:00:01;28.90;;;11.55;;
66721;SDS011;53633;49.932;10.884;2022-11-20T01:02:30;31.42;;;12.02;;
66721;SDS011;53633;49.932;10.884;2022-11-20T01:04:57;31.47;;;11.57;;
66721;SDS011;53633;49.932;10.884;2022-11-20T01:07:23;30.98;;;11.82;;
66721;SDS011;53633;49.932;10.884;2022-11-20T01:09:50;26.88;;;10.85;;
66721;SDS011;53633;49.932;10.884;2022-11-20T01:12:17;29.63;;;12.13;;
66721;SDS011;53633;49.932;10.884;2022-11-20T01:14:43;30.85;;;11.02;;
66721;SDS011;53633;49.932;10.884;2022-11-20T01:17:10;29.97;;;11.43;;
66721;SDS011;53633;49.932;10.884;2022-11-20T01:19:38;30.85;;;11.40;;
66721;SDS011;53633;49.932;10.884;2022-11-20T01:22:05;31.08;;;12.40;;
66721;SDS011;53633;49.932;10.884;2022-11-20T01:24:32;29.55;;;11.52;;
66721;SDS011;53633;49.932;10.884;2022-11-20T01:26:58;34.03;;;11.57;;
66721;SDS011;53633;49.932;10.884;2022-11-20T01:29:25;30.37;;;11.27;;
66721;SDS011;53633;49.932;10.884;2022-11-20T01:31:52;32.58;;;11.73;;
66721;SDS011;53633;49.932;10.884;2022-11-20T01:34:20;31.60;;;11.43;;
66721;SDS011;53633;49.932;10.884;2022-11-20T01:36:49;31.02;;;10.80;;
66721;SDS011;53633;49.932;10.884;2022-11-20T01:39:16;27.85;;;10.95;;
66721;SDS011;53633;49.932;10.884;2022-11-20T01:41:46;31.90;;;11.83;;
66721;SDS011;53633;49.932;10.884;2022-11-20T01:44:14;26.70;;;10.60;;
66721;SDS011;53633;49.932;10.884;2022-11-20T01:46:53;30.20;;;11.48;;
66721;SDS011;53633;49.932;10.884;2022-11-20T01:49:25;30.75;;;11.38;;
66721;SDS011;53633;49.932;10.884;2022-11-20T01:51:58;31.13;;;10.98;;
66721;SDS011;53633;49.932;10.884;2022-11-20T01:54:29;30.20;;;11.53;;
66721;SDS011;53633;49.932;10.884;2022-11-20T01:57:01;27.83;;;10.07;;
66721;SDS011;53633;49.932;10.884;2022-11-20T01:59:30;30.42;;;10.93;;
66721;SDS011;53633;49.932;10.884;2022-11-20T02:01:57;29.58;;;11.25;;
66721;SDS011;53633;49.932;10.884;2022-11-20T02:04:24;30.65;;;11.18;;
66721;SDS011;53633;49.932;10.884;2022-11-20T02:06:51;31.20;;;11.00;;
66721;SDS011;53633;49.932;10.884;2022-11-20T02:09:25;30.15;;;11.57;;
66721;SDS011;53633;49.932;10.884;2022-11-20T02:11:52;28.88;;;11.48;;
66721;SDS011;53633;49.932;10.884;2022-11-20T02:14:19;29.05;;;11.07;;
66721;SDS011;53633;49.932;10.884;2022-11-20T02:16:48;33.25;;;12.20;;
66721;SDS011;53633;49.932;10.884;2022-11-20T02:19:17;28.00;;;11.70;;
66721;SDS011;53633;49.932;10.884;2022-11-20T02:21:51;30.00;;;10.90;;
66721;SDS011;53633;49.932;10.884;2022-11-20T02:24:27;31.73;;;11.35;;
66721;SDS011;53633;49.932;10.884;2022-11-20T02:26:56;30.48;;;11.02;;
66721;SDS011;53633;49.932;10.884;2022-11-20T02:29:26;31.25;;;10.80;;
66721;SDS011;53633;49.932;10.884;2022-11-20T02:31:57;29.53;;;10.97;;
66721;SDS011;53633;49.932;10.884;2022-11-20T02:34:26;28.77;;;11.07;;
66721;SDS011;53633;49.932;10.884;2022-11-20T02:36:53;33.65;;;12.68;;
66721;SDS011;53633;49.932;10.884;2022-11-20T02:39:20;27.27;;;10.18;;
66721;SDS011;53633;49.932;10.884;2022-11-20T02:41:50;31.45;;;11.07;;
66721;SDS011;53633;49.932;10.884;2022-11-20T02:44:19;28.67;;;10.63;;
66721;SDS011;53633;49.932;10.884;2022-11-20T02:46:45;30.75;;;10.93;;
66721;SDS011;53633;49.932;10.884;2022-11-20T02:49:12;30.55;;;11.52;;
66721;SDS011;53633;49.932;10.884;2022-11-20T02:51:39;30.80;;;11.10;;
66721;SDS011;53633;49.932;10.884;2022-11-20T02:54:05;26.52;;;9.25;;
66721;SDS011;53633;49.932;10.884;2022-11-20T02:56:32;25.67;;;10.40;;
66721;SDS011;53633;49.932;10.884;2022-11-20T02:59:00;31.42;;;11.50;;
66721;SDS011;53633;49.932;10.884;2022-11-20T03:01:27;29.02;;;11.13;;
66721;SDS011;53633;49.932;10.884;2022-11-20T03:03:53;27.45;;;10.20;;
66721;SDS011;53633;49.932;10.884;2022-11-20T03:06:20;32.17;;;11.13;;
66721;SDS011;53633;49.932;10.884;2022-11-20T03:08:47;29.87;;;10.63;;
66721;SDS011;53633;49.932;10.884;2022-11-20T03:11:14;30.05;;;11.10;;
66721;SDS011;53633;49.932;10.884;2022-11-20T03:13:40;30.42;;;10.93;;
66721;SDS011;53633;49.932;10.884;2022-11-20T03:16:10;34.40;;;13.15;;
66721;SDS011;53633;49.932;10.884;2022-11-20T03:18:38;33.13;;;10.95;;
66721;SDS011;53633;49.932;10.884;2022-11-20T03:21:05;29.70;;;11.33;;
66721;SDS011;53633;49.932;10.884;2022-11-20T03:23:33;30.88;;;11.02;;
66721;SDS011;53633;49.932;10.884;2022-11-20T03:26:07;29.27;;;11.55;;
66721;SDS011;53633;49.932;10.884;2022-11-20T03:28:37;27.55;;;10.70;;
66721;SDS011;53633;49.932;10.884;2022-11-20T03:31:05;30.98;;;10.82;;
66721;SDS011;53633;49.932;10.884;2022-11-20T03:33:35;29.67;;;11.07;;
66721;SDS011;53633;49.932;10.884;2022-11-20T03:36:02;28.75;;;11.63;;
66721;SDS011;53633;49.932;10.884;2022-11-20T03:38:29;28.75;;;10.73;;
66721;SDS011;53633;49.932;10.884;2022-11-20T03:41:01;27.45;;;10.82;;
66721;SDS011;53633;49.932;10.884;2022-11-20T03:43:30;31.60;;;11.85;;
66721;SDS011;53633;49.932;10.884;2022-11-20T03:45:56;26.60;;;10.33;;
66721;SDS011;53633;49.932;10.884;2022-11-20T03:48:23;27.88;;;10.40;;
66721;SDS011;53633;49.932;10.884;2022-11-20T03:50:52;27.50;;;10.63;;
66721;SDS011;53633;49.932;10.884;2022-11-20T03:53:19;28.17;;;10.15;;
66721;SDS011;53633;49.932;10.884;2022-11-20T03:55:50;30.05;;;10.85;;
66721;SDS011;53633;49.932;10.884;2022-11-20T03:58:17;27.10;;;10.70;;
66721;SDS011;53633;49.932;10.884;2022-11-20T04:00:43;29.23;;;10.55;;
66721;SDS011;53633;49.932;10.884;2022-11-20T04:03:10;30.40;;;11.75;;
66721;SDS011;53633;49.932;10.884;2022-11-20T04:05:37;26.55;;;10.30;;
66721;SDS011;53633;49.932;10.884;2022-11-20T04:08:05;29.20;;;11.70;;
66721;SDS011;53633;49.932;10.884;2022-11-20T04:10:32;30.20;;;11.27;;
66721;SDS011;53633;49.932;10.884;2022-11-20T04:12:58;30.70;;;11.00;;
66721;SDS011;53633;49.932;10.884;2022-11-20T04:15:25;27.95;;;10.93;;
66721;SDS011;53633;49.932;10.884;2022-11-20T04:17:53;26.02;;;10.15;;
66721;SDS011;53633;49.932;10.884;2022-11-20T04:20:20;27.88;;;10.63;;
66721;SDS011;53633;49.932;10.884;2022-11-20T04:22:47;29.30;;;10.67;;
66721;SDS011;53633;49.932;10.884;2022-11-20T04:25:15;26.77;;;11.18;;
66721;SDS011;53633;49.932;10.884;2022-11-20T04:27:41;29.60;;;11.15;;
66721;SDS011;53633;49.932;10.884;2022-11-20T04:30:08;29.55;;;11.38;;
66721;SDS011;53633;49.932;10.884;2022-11-20T04:32:36;31.50;;;11.20;;
66721;SDS011;53633;49.932;10.884;2022-11-20T04:35:03;26.40;;;9.90;;
66721;SDS011;53633;49.932;10.884;2022-11-20T04:37:30;25.90;;;9.95;;
66721;SDS011;53633;49.932;10.884;2022-11-20T04:39:57;30.50;;;11.50;;
66721;SDS011;53633;49.932;10.884;2022-11-20T04:42:25;28.90;;;11.77;;
66721;SDS011;53633;49.932;10.884;2022-11-20T04:44:51;28.05;;;10.70;;
66721;SDS011;53633;49.932;10.884;2022-11-20T04:47:18;31.30;;;11.50;;
66721;SDS011;53633;49.932;10.884;2022-11-20T04:49:45;30.25;;;11.85;;
66721;SDS011;53633;49.932;10.884;2022-11-20T04:52:11;30.42;;;10.80;;
66721;SDS011;53633;49.932;10.884;2022-11-20T04:54:38;31.88;;;11.07;;
66721;SDS011;53633;49.932;10.884;2022-11-20T04:57:05;30.40;;;11.55;;
66721;SDS011;53633;49.932;10.884;2022-11-20T04:59:40;34.83;;;11.33;;
66721;SDS011;53633;49.932;10.884;2022-11-20T05:02:07;26.98;;;11.02;;
66721;SDS011;53633;49.932;10.884;2022-11-20T05:04:34;33.50;;;11.63;;
66721;SDS011;53633;49.932;10.884;2022-11-20T05:07:01;31.02;;;11.15;;
66721;SDS011;53633;49.932;10.884;2022-11-20T05:09:27;30.55;;;10.93;;
66721;SDS011;53633;49.932;10.884;2022-11-20T05:11:54;26.50;;;10.60;;
66721;SDS011;53633;49.932;10.884;2022-11-20T05:14:21;32.25;;;11.38;;
66721;SDS011;53633;49.932;10.884;2022-11-20T05:16:49;29.85;;;10.80;;
66721;SDS011;53633;49.932;10.884;2022-11-20T05:19:15;29.45;;;11.55;;
66721;SDS011;53633;49.932;10.884;2022-11-20T05:21:42;31.48;;;11.90;;
66721;SDS011;53633;49.932;10.884;2022-11-20T05:24:09;30.50;;;11.70;;
66721;SDS011;53633;49.932;10.884;2022-11-20T05:26:36;29.13;;;10.57;;
66721;SDS011;53633;49.932;10.884;2022-11-20T05:29:02;30.80;;;11.45;;
66721;SDS011;53633;49.932;10.884;2022-11-20T05:31:29;30.83;;;10.88;;
66721;SDS011;53633;49.932;10.884;2022-11-20T05:33:57;33.65;;;11.73;;
66721;SDS011;53633;49.932;10.884;2022-11-20T05:36:24;29.07;;;10.30;;
66721;SDS011;53633;49.932;10.884;2022-11-20T05:38:51;29.02;;;11.05;;
66721;SDS011;53633;49.932;10.884;2022-11-20T05:41:25;32.67;;;11.57;;
66721;SDS011;53633;49.932;10.884;2022-11-20T05:43:51;33.05;;;12.32;;
66721;SDS011;53633;49.932;10.884;2022-11-20T05:46:19;32.33;;;11.88;;
66721;SDS011;53633;49.932;10.884;2022-11-20T05:48:54;31.13;;;11.37;;
66721;SDS011;53633;49.932;10.884;2022-11-20T05:51:22;30.95;;;11.88;;
66721;SDS011;53633;49.932;10.884;2022-11-20T05:53:49;29.63;;;11.13;;
66721;SDS011;53633;49.932;10.884;2022-11-20T05:56:18;27.38;;;11.82;;
66721;SDS011;53633;49.932;10.884;2022-11-20T05:58:46;29.48;;;11.75;;
66721;SDS011;53633;49.932;10.884;2022-11-20T06:01:14;32.20;;;11.77;;
66721;SDS011;53633;49.932;10.884;2022-11-20T06:03:42;29.40;;;11.85;;
66721;SDS011;53633;49.932;10.884;2022-11-20T06:06:09;33.67;;;12.43;;
66721;SDS011;53633;49.932;10.884;2022-11-20T06:08:37;28.08;;;11.48;;
66721;SDS011;53633;49.932;10.884;2022-11-20T06:11:04;28.15;;;10.85;;
66721;SDS011;53633;49.932;10.884;2022-11-20T06:13:32;28.63;;;11.03;;
66721;SDS011;53633;49.932;10.884;2022-11-20T06:16:06;30.95;;;10.82;;
66721;SDS011;53633;49.932;10.884;2022-11-20T06:18:32;28.50;;;10.45;;
66721;SDS011;53633;49.932;10.884;2022-11-20T06:21:00;27.02;;;11.02;;
66721;SDS011;53633;49.932;10.884;2022-11-20T06:23:28;28.80;;;11.73;;
66721;SDS011;53633;49.932;10.884;2022-11-20T06:25:57;30.00;;;12.53;;
66721;SDS011;53633;49.932;10.884;2022-11-20T06:28:26;33.30;;;11.60;;
66721;SDS011;53633;49.932;10.884;2022-11-20T06:30:53;30.92;;;12.52;;
66721;SDS011;53633;49.932;10.884;2022-11-20T06:33:20;30.85;;;10.27;;
66721;SDS011;53633;49.932;10.884;2022-11-20T06:35:46;31.42;;;11.90;;
66721;SDS011;53633;49.932;10.884;2022-11-20T06:38:13;29.27;;;11.03;;
66721;SDS011;53633;49.932;10.884;2022-11-20T06:40:40;29.10;;;11.95;;
66721;SDS011;53633;49.932;10.884;2022-11-20T06:43:08;34.75;;;12.05;;
66721;SDS011;53633;49.932;10.884;2022-11-20T06:45:35;30.90;;;11.60;;
66721;SDS011;53633;49.932;10.884;2022-11-20T06:48:02;29.88;;;11.75;;
66721;SDS011;53633;49.932;10.884;2022-11-20T06:50:29;33.67;;;11.90;;
66721;SDS011;53633;49.932;10.884;2022-11-20T06:52:56;30.52;;;11.88;;
66721;SDS011;53633;49.932;10.884;2022-11-20T06:55:26;27.20;;;11.10;;
66721;SDS011;53633;49.932;10.884;2022-11-20T06:57:52;30.85;;;12.23;;
66721;SDS011;53633;49.932;10.884;2022-11-20T07:00:22;28.85;;;11.80;;
66721;SDS011;53633;49.932;10.884;2022-11-20T07:02:49;29.80;;;11.40;;
66721;SDS011;53633;49.932;10.884;2022-11-20T07:05:16;26.35;;;10.50;;
66721;SDS011;53633;49.932;10.884;2022-11-20T07:07:44;29.80;;;11.43;;
66721;SDS011;53633;49.932;10.884;2022-11-20T07:10:10;28.67;;;11.05;;
66721;SDS011;53633;49.932;10.884;2022-11-20T07:12:37;31.77;;;12.45;;
66721;SDS011;53633;49.932;10.884;2022-11-20T07:15:05;27.10;;;11.07;;
66721;SDS011;53633;49.932;10.884;2022-11-20T07:17:34;29.85;;;11.35;;
66721;SDS011;53633;49.932;10.884;2022-11-20T07:20:00;29.02;;;11.90;;
66721;SDS011;53633;49.932;10.884;2022-11-20T07:22:27;31.00;;;11.55;;
66721;SDS011;53633;49.932;10.884;2022-11-20T07:24:54;29.15;;;10.93;;
66721;SDS011;53633;49.932;10.884;2022-11-20T07:27:20;29.50;;;11.00;;
66721;SDS011;53633;49.932;10.884;2022-11-20T07:29:47;30.98;;;10.98;;
66721;SDS011;53633;49.932;10.884;2022-11-20T07:32:14;34.80;;;12.20;;
66721;SDS011;53633;49.932;10.884;2022-11-20T07:34:42;28.15;;;11.00;;
66721;SDS011;53633;49.932;10.884;2022-11-20T07:37:08;31.48;;;11.98;;
66721;SDS011;53633;49.932;10.884;2022-11-20T07:39:35;28.63;;;10.97;;
66721;SDS011;53633;49.932;10.884;2022-11-20T07:42:02;31.83;;;13.07;;
66721;SDS011;53633;49.932;10.884;2022-11-20T07:44:29;36.05;;;13.13;;
66721;SDS011;53633;49.932;10.884;2022-11-20T07:46:56;31.58;;;11.25;;
66721;SDS011;53633;49.932;10.884;2022-11-20T07:49:22;29.13;;;11.27;;
66721;SDS011;53633;49.932;10.884;2022-11-20T07:51:51;28.70;;;11.17;;
66721;SDS011;53633;49.932;10.884;2022-11-20T07:54:17;28.13;;;11.25;;
66721;SDS011;53633;49.932;10.884;2022-11-20T07:56:44;28.52;;;10.95;;
66721;SDS011;53633;49.932;10.884;2022-11-20T07:59:11;29.23;;;10.93;;
66721;SDS011;53633;49.932;10.884;2022-11-20T08:01:37;31.00;;;10.50;;
66721;SDS011;53633;49.932;10.884;2022-11-20T08:04:04;27.70;;;10.10;;
66721;SDS011;53633;49.932;10.884;2022-11-20T08:06:31;29.95;;;11.52;;
66721;SDS011;53633;49.932;10.884;2022-11-20T08:08:59;29.65;;;11.90;;
66721;SDS011;53633;49.932;10.884;2022-11-20T08:11:26;29.40;;;10.82;;
66721;SDS011;53633;49.932;10.884;2022-11-20T08:13:53;29.58;;;11.82;;
66721;SDS011;53633;49.932;10.884;2022-11-20T08:16:19;29.80;;;11.20;;
66721;SDS011;53633;49.932;10.884;2022-11-20T08:18:46;31.45;;;12.65;;
66721;SDS011;53633;49.932;10.884;2022-11-20T08:21:13;31.85;;;12.07;;
66721;SDS011;53633;49.932;10.884;2022-11-20T08:23:39;30.80;;;11.60;;
66721;SDS011;53633;49.932;10.884;2022-11-20T08:26:07;31.15;;;11.98;;
66721;SDS011;53633;49.932;10.884;2022-11-20T08:28:34;31.37;;;12.30;;
66721;SDS011;53633;49.932;10.884;2022-11-20T08:31:01;31.90;;;11.93;;
66721;SDS011;53633;49.932;10.884;2022-11-20T08:33:29;29.73;;;12.13;;
66721;SDS011;53633;49.932;10.884;2022-11-20T08:35:58;31.33;;;12.80;;
66721;SDS011;53633;49.932;10.884;2022-11-20T08:38:25;31.27;;;11.18;;
66721;SDS011;53633;49.932;10.884;2022-11-20T08:40:52;30.43;;;11.90;;
66721;SDS011;53633;49.932;10.884;2022-11-20T08:43:24;32.95;;;12.15;;
66721;SDS011;53633;49.932;10.884;2022-11-20T08:45:50;36.47;;;13.80;;
66721;SDS011;53633;49.932;10.884;2022-11-20T08:48:17;32.83;;;12.20;;
66721;SDS011;53633;49.932;10.884;2022-11-20T08:50:44;32.25;;;12.15;;
66721;SDS011;53633;49.932;10.884;2022-11-20T08:53:10;32.77;;;12.33;;
66721;SDS011;53633;49.932;10.884;2022-11-20T08:55:37;31.90;;;12.48;;
66721;SDS011;53633;49.932;10.884;2022-11-20T08:58:08;29.10;;;11.98;;
66721;SDS011;53633;49.932;10.884;2022-11-20T09:00:36;29.42;;;11.90;;
66721;SDS011;53633;49.932;10.884;2022-11-20T09:03:03;31.80;;;12.45;;
66721;SDS011;53633;49.932;10.884;2022-11-20T09:05:30;35.70;;;13.77;;
66721;SDS011;53633;49.932;10.884;2022-11-20T09:07:56;33.58;;;12.98;;
66721;SDS011;53633;49.932;10.884;2022-11-20T09:10:23;30.52;;;12.35;;
66721;SDS011;53633;49.932;10.884;2022-11-20T09:12:50;30.63;;;12.23;;
66721;SDS011;53633;49.932;10.884;2022-11-20T09:15:17;32.33;;;12.02;;
66721;SDS011;53633;49.932;10.884;2022-11-20T09:17:51;29.57;;;11.57;;
66721;SDS011;53633;49.932;10.884;2022-11-20T09:20:18;32.15;;;12.48;;
66721;SDS011;53633;49.932;10.884;2022-11-20T09:22:44;33.10;;;12.35;;
66721;SDS011;53633;49.932;10.884;2022-11-20T09:25:11;31.25;;;12.23;;
66721;SDS011;53633;49.932;10.884;2022-11-20T09:27:38;31.45;;;13.13;;
66721;SDS011;53633;49.932;10.884;2022-11-20T09:30:05;29.43;;;11.63;;
66721;SDS011;53633;49.932;10.884;2022-11-20T09:32:33;35.53;;;13.02;;
66721;SDS011;53633;49.932;10.884;2022-11-20T09:35:01;32.83;;;14.07;;
66721;SDS011;53633;49.932;10.884;2022-11-20T09:37:28;36.33;;;14.30;;
66721;SDS011;53633;49.932;10.884;2022-11-20T09:39:54;35.05;;;14.00;;
66721;SDS011;53633;49.932;10.884;2022-11-20T09:42:24;36.93;;;14.03;;
66721;SDS011;53633;49.932;10.884;2022-11-20T09:45:05;35.83;;;15.35;;
66721;SDS011;53633;49.932;10.884;2022-11-20T09:47:45;37.38;;;14.77;;
66721;SDS011;53633;49.932;10.884;2022-11-20T09:50:27;35.25;;;13.07;;
66721;SDS011;53633;49.932;10.884;2022-11-20T09:53:11;33.83;;;13.70;;
66721;SDS011;53633;49.932;10.884;2022-11-20T09:55:42;34.47;;;13.53;;
66721;SDS011;53633;49.932;10.884;2022-11-20T09:58:12;37.85;;;13.98;;
66721;SDS011;53633;49.932;10.884;2022-11-20T10:00:44;33.58;;;13.57;;
66721;SDS011;53633;49.932;10.884;2022-11-20T10:03:16;35.13;;;14.80;;
66721;SDS011;53633;49.932;10.884;2022-11-20T10:05:50;36.17;;;14.68;;
66721;SDS011;53633;49.932;10.884;2022-11-20T10:08:21;34.83;;;13.70;;
66721;SDS011;53633;49.932;10.884;2022-11-20T10:10:52;35.28;;;13.43;;
66721;SDS011;53633;49.932;10.884;2022-11-20T10:13:31;34.92;;;13.70;;
66721;SDS011;53633;49.932;10.884;2022-11-20T10:16:12;34.15;;;14.50;;
66721;SDS011;53633;49.932;10.884;2022-11-20T10:18:54;34.58;;;13.50;;
66721;SDS011;53633;49.932;10.884;2022-11-20T10:21:33;38.80;;;13.73;;
66721;SDS011;53633;49.932;10.884;2022-11-20T10:27:10;37.42;;;14.70;;
66721;SDS011;53633;49.932;10.884;2022-11-20T10:29:52;39.03;;;13.70;;
66721;SDS011;53633;49.932;10.884;2022-11-20T10:32:27;39.30;;;15.40;;
66721;SDS011;53633;49.932;10.884;2022-11-20T10:35:00;39.50;;;14.97;;
66721;SDS011;53633;49.932;10.884;2022-11-20T10:37:32;36.95;;;14.10;;
66721;SDS011;53633;49.932;10.884;2022-11-20T10:40:04;40.42;;;16.52;;
66721;SDS011;53633;49.932;10.884;2022-11-20T10:42:45;42.25;;;16.88;;
66721;SDS011;53633;49.932;10.884;2022-11-20T10:45:16;44.50;;;17.98;;
66721;SDS011;53633;49.932;10.884;2022-11-20T10:47:48;43.50;;;18.70;;
66721;SDS011;53633;49.932;10.884;2022-11-20T10:50:16;43.53;;;18.80;;
66721;SDS011;53633;49.932;10.884;2022-11-20T10:52:51;46.97;;;19.65;;
66721;SDS011;53633;49.932;10.884;2022-11-20T10:55:30;44.88;;;18.25;;
66721;SDS011;53633;49.932;10.884;2022-11-20T10:58:08;40.80;;;17.00;;
66721;SDS011;53633;49.932;10.884;2022-11-20T11:00:39;41.37;;;15.77;;
66721;SDS011;53633;49.932;10.884;2022-11-20T11:03:13;37.58;;;14.98;;
66721;SDS011;53633;49.932;10.884;2022-11-20T11:05:48;36.55;;;14.93;;
66721;SDS011;53633;49.932;10.884;2022-11-20T11:08:21;39.75;;;16.42;;
66721;SDS011;53633;49.932;10.884;2022-11-20T11:10:51;39.72;;;15.48;;
66721;SDS011;53633;49.932;10.884;2022-11-20T11:13:20;36.47;;;14.70;;
66721;SDS011;53633;49.932;10.884;2022-11-20T11:15:47;44.25;;;17.45;;
66721;SDS011;53633;49.932;10.884;2022-11-20T11:18:22;42.70;;;17.33;;
66721;SDS011;53633;49.932;10.884;2022-11-20T11:20:50;45.50;;;17.25;;
66721;SDS011;53633;49.932;10.884;2022-11-20T11:23:26;37.95;;;16.48;;
66721;SDS011;53633;49.932;10.884;2022-11-20T11:25:57;39.10;;;16.63;;
66721;SDS011;53633;49.932;10.884;2022-11-20T11:28:26;39.63;;;15.77;;
66721;SDS011;53633;49.932;10.884;2022-11-20T11:30:53;38.03;;;16.33;;
66721;SDS011;53633;49.932;10.884;2022-11-20T11:33:21;40.85;;;16.58;;
66721;SDS011;53633;49.932;10.884;2022-11-20T11:35:50;39.63;;;16.92;;
66721;SDS011;53633;49.932;10.884;2022-11-20T11:38:20;39.90;;;15.40;;
66721;SDS011;53633;49.932;10.884;2022-11-20T11:40:52;38.28;;;16.45;;
66721;SDS011;53633;49.932;10.884;2022-11-20T11:43:20;42.20;;;16.55;;
66721;SDS011;53633;49.932;10.884;2022-11-20T11:45:51;38.00;;;15.68;;
66721;SDS011;53633;49.932;10.884;2022-11-20T11:48:19;35.15;;;14.38;;
66721;SDS011;53633;49.932;10.884;2022-11-20T11:50:48;41.70;;;14.33;;
66721;SDS011;53633;49.932;10.884;2022-11-20T11:53:16;30.10;;;12.18;;
66721;SDS011;53633;49.932;10.884;2022-11-20T11:55:45;34.10;;;14.48;;
66721;SDS011;53633;49.932;10.884;2022-11-20T11:58:19;37.33;;;14.10;;
66721;SDS011;53633;49.932;10.884;2022-11-20T12:01:01;33.35;;;13.15;;
66721;SDS011;53633;49.932;10.884;2022-11-20T12:03:34;34.00;;;13.80;;
66721;SDS011;53633;49.932;10.884;2022-11-20T12:06:04;34.35;;;12.95;;
66721;SDS011;53633;49.932;10.884;2022-11-20T12:08:38;30.05;;;12.40;;
66721;SDS011;53633;49.932;10.884;2022-11-20T12:11:11;27.27;;;11.18;;
66721;SDS011;53633;49.932;10.884;2022-11-20T12:13:42;30.02;;;10.43;;
66721;SDS011;53633;49.932;10.884;2022-11-20T12:16:15;32.87;;;12.77;;
66721;SDS011;53633;49.932;10.884;2022-11-20T12:18:45;31.45;;;12.90;;
66721;SDS011;53633;49.932;10.884;2022-11-20T12:21:20;33.25;;;13.73;;
66721;SDS011;53633;49.932;10.884;2022-11-20T12:24:01;34.33;;;12.85;;
66721;SDS011;53633;49.932;10.884;2022-11-20T12:26:53;32.80;;;13.50;;
66721;SDS011;53633;49.932;10.884;2022-11-20T12:29:35;34.73;;;14.73;;
66721;SDS011;53633;49.932;10.884;2022-11-20T12:32:25;37.80;;;15.13;;
66721;SDS011;53633;49.932;10.884;2022-11-20T12:35:05;38.83;;;16.30;;
66721;SDS011;53633;49.932;10.884;2022-11-20T12:37:45;41.20;;;15.52;;
66721;SDS011;53633;49.932;10.884;2022-11-20T12:40:28;43.92;;;15.98;;
66721;SDS011;53633;49.932;10.884;2022-11-20T12:43:01;39.70;;;16.10;;
66721;SDS011;53633;49.932;10.884;2022-11-20T12:51:50;64.57;;;26.50;;
66721;SDS011;53633;49.932;10.884;2022-11-20T12:54:30;46.22;;;18.75;;
66721;SDS011;53633;49.932;10.884;2022-11-20T12:57:15;36.03;;;14.10;;
66721;SDS011;53633;49.932;10.884;2022-11-20T12:59:50;39.30;;;15.40;;
66721;SDS011;53633;49.932;10.884;2022-11-20T13:02:26;39.58;;;14.70;;
66721;SDS011;53633;49.932;10.884;2022-11-20T13:05:04;37.70;;;14.13;;
66721;SDS011;53633;49.932;10.884;2022-11-20T13:07:38;40.92;;;14.43;;
66721;SDS011;53633;49.932;10.884;2022-11-20T13:10:11;38.00;;;14.07;;
66721;SDS011;53633;49.932;10.884;2022-11-20T13:12:45;34.70;;;13.50;;
66721;SDS011;53633;49.932;10.884;2022-11-20T13:15:18;30.73;;;12.95;;
66721;SDS011;53633;49.932;10.884;2022-11-20T13:17:59;35.03;;;14.65;;
66721;SDS011;53633;49.932;10.884;2022-11-20T13:20:27;33.15;;;14.57;;
66721;SDS011;53633;49.932;10.884;2022-11-20T13:22:56;35.13;;;14.70;;
66721;SDS011;53633;49.932;10.884;2022-11-20T13:25:23;37.30;;;14.88;;
66721;SDS011;53633;49.932;10.884;2022-11-20T13:27:51;36.63;;;14.30;;
66721;SDS011;53633;49.932;10.884;2022-11-20T13:30:19;37.72;;;14.43;;
66721;SDS011;53633;49.932;10.884;2022-11-20T13:32:47;33.47;;;14.05;;
66721;SDS011;53633;49.932;10.884;2022-11-20T13:35:25;38.67;;;15.00;;
66721;SDS011;53633;49.932;10.884;2022-11-20T13:38:00;32.53;;;12.68;;
66721;SDS011;53633;49.932;10.884;2022-11-20T13:40:29;34.60;;;13.98;;
66721;SDS011;53633;49.932;10.884;2022-11-20T13:43:01;39.25;;;15.80;;
66721;SDS011;53633;49.932;10.884;2022-11-20T13:45:33;30.95;;;12.60;;
66721;SDS011;53633;49.932;10.884;2022-11-20T13:48:01;26.73;;;11.17;;
66721;SDS011;53633;49.932;10.884;2022-11-20T13:50:40;24.33;;;10.07;;
66721;SDS011;53633;49.932;10.884;2022-11-20T13:53:29;30.15;;;10.70;;
66721;SDS011;53633;49.932;10.884;2022-11-20T13:56:10;24.73;;;9.57;;
66721;SDS011;53633;49.932;10.884;2022-11-20T13:58:48;24.45;;;9.80;;
66721;SDS011;53633;49.932;10.884;2022-11-20T14:01:30;25.90;;;10.03;;
66721;SDS011;53633;49.932;10.884;2022-11-20T14:03:58;23.88;;;9.10;;
66721;SDS011;53633;49.932;10.884;2022-11-20T14:06:34;21.27;;;8.73;;
66721;SDS011;53633;49.932;10.884;2022-11-20T14:09:10;22.58;;;8.38;;
66721;SDS011;53633;49.932;10.884;2022-11-20T14:11:37;22.27;;;8.77;;
66721;SDS011;53633;49.932;10.884;2022-11-20T14:14:13;25.93;;;9.53;;
66721;SDS011;53633;49.932;10.884;2022-11-20T14:16:42;22.10;;;8.73;;
66721;SDS011;53633;49.932;10.884;2022-11-20T14:19:28;25.35;;;11.07;;
66721;SDS011;53633;49.932;10.884;2022-11-20T14:22:08;23.80;;;9.48;;
66721;SDS011;53633;49.932;10.884;2022-11-20T14:24:41;23.60;;;9.32;;
66721;SDS011;53633;49.932;10.884;2022-11-20T14:27:18;24.77;;;9.93;;
66721;SDS011;53633;49.932;10.884;2022-11-20T14:29:46;25.52;;;9.93;;
66721;SDS011;53633;49.932;10.884;2022-11-20T14:32:16;25.55;;;9.90;;